Time,TemperatureF,DewpointF,PressureIn,WindDirection,WindDirectionDegrees,WindSpeedMPH,WindSpeedGustMPH,Humidity,HourlyPrecipIn,Conditions,Clouds,dailyrainin,SoftwareType,DateUTC
2013-02-20 00:00:00,22.0,-99.9,-100.00,West,260,3.0,4.0,-999,-99.99,,,0.00,,2013-02-20 08:00:00,
2013-02-20 00:52:00,22.0,-99.9,-100.00,West,260,3.0,4.0,-999,-99.99,,,0.00,,2013-02-20 08:52:00,
2013-02-20 01:00:00,22.0,-99.9,-100.00,West,279,2.0,3.0,-999,-99.99,,,-99.99,,2013-02-20 09:00:00,
2013-02-20 01:52:00,22.0,-99.9,-100.00,West,279,2.0,3.0,-999,-99.99,,,-99.99,,2013-02-20 09:52:00,
2013-02-20 02:00:00,21.0,-99.9,-100.00,WNW,282,2.0,5.0,-999,-99.99,,,0.00,,2013-02-20 10:00:00,
2013-02-20 03:00:00,21.0,-99.9,-100.00,WNW,303,3.0,4.0,-999,-99.99,,,-99.99,,2013-02-20 11:00:00,
2013-02-20 03:52:00,21.0,-99.9,-100.00,WNW,303,3.0,4.0,-999,-99.99,,,-99.99,,2013-02-20 11:52:00,
2013-02-20 04:00:00,21.0,-99.9,-100.00,NW,307,1.0,3.0,-999,-99.99,,,0.00,,2013-02-20 12:00:00,
2013-02-20 06:00:00,22.0,-99.9,-100.00,East,85,1.0,2.0,-999,-99.99,,,0.00,,2013-02-20 14:00:00,
2013-02-20 06:52:00,22.0,-99.9,-100.00,East,85,1.0,2.0,-999,-99.99,,,0.00,,2013-02-20 14:52:00,
2013-02-20 07:00:00,22.0,-99.9,-100.00,East,93,1.0,2.0,-999,-99.99,,,-99.99,,2013-02-20 15:00:00,
2013-02-20 08:00:00,21.0,-99.9,-100.00,East,91,0.0,1.0,-999,-99.99,,,0.00,,2013-02-20 16:00:00,
2013-02-20 08:52:00,21.0,-99.9,-100.00,East,91,0.0,1.0,-999,-99.99,,,0.00,,2013-02-20 16:52:00,
2013-02-20 09:00:00,23.0,-99.9,-100.00,East,91,0.0,2.0,-999,-99.99,,,0.00,,2013-02-20 17:00:00,
2013-02-20 09:52:00,23.0,-99.9,-100.00,East,91,0.0,2.0,-999,-99.99,,,0.00,,2013-02-20 17:52:00,
2013-02-20 10:00:00,23.0,-99.9,-100.00,ESE,113,0.0,1.0,-999,-99.99,,,-99.99,,2013-02-20 18:00:00,
2013-02-20 10:52:00,23.0,-99.9,-100.00,ESE,113,0.0,1.0,-999,-99.99,,,-99.99,,2013-02-20 18:52:00,
2013-02-20 11:00:00,24.0,-99.9,-100.00,SE,125,0.0,1.0,-999,-99.99,,,0.00,,2013-02-20 19:00:00,
2013-02-20 11:52:00,24.0,-99.9,-100.00,SE,125,0.0,1.0,-999,-99.99,,,0.00,,2013-02-20 19:52:00,
2013-02-20 12:00:00,24.0,-99.9,-100.00,ESE,117,0.0,1.0,-999,-99.99,,,0.00,,2013-02-20 20:00:00,
2013-02-20 12:52:00,24.0,-99.9,-100.00,ESE,117,0.0,1.0,-999,-99.99,,,0.00,,2013-02-20 20:52:00,
2013-02-20 13:00:00,25.0,-99.9,-100.00,SE,145,0.0,1.0,-999,-99.99,,,0.00,,2013-02-20 21:00:00,
2013-02-20 13:52:00,25.0,-99.9,-100.00,SE,145,0.0,1.0,-999,-99.99,,,0.00,,2013-02-20 21:52:00,
2013-02-20 14:00:00,25.0,-99.9,-100.00,ESE,102,0.0,1.0,-999,-99.99,,,0.00,,2013-02-20 22:00:00,
2013-02-20 14:52:00,25.0,-99.9,-100.00,ESE,102,0.0,1.0,-999,-99.99,,,0.00,,2013-02-20 22:52:00,
2013-02-20 15:00:00,25.0,-99.9,-100.00,ENE,68,0.0,1.0,-999,-99.99,,,0.00,,2013-02-20 23:00:00,
2013-02-20 15:53:00,25.0,-99.9,-100.00,ENE,68,0.0,1.0,-999,-99.99,,,0.00,,2013-02-20 23:53:00,
2013-02-20 16:00:00,25.0,-99.9,-100.00,North,-999,-999.0,-999.0,-999,-99.99,,,-99.99,,2013-02-21 00:00:00,
2013-02-20 16:53:00,25.0,-99.9,-100.00,North,-999,-999.0,-999.0,-999,-99.99,,,-99.99,,2013-02-21 00:53:00,
2013-02-20 17:00:00,25.0,-99.9,-100.00,SE,124,0.0,1.0,-999,-99.99,,,-99.99,,2013-02-21 01:00:00,
2013-02-20 17:52:00,25.0,-99.9,-100.00,SE,124,0.0,1.0,-999,-99.99,,,-99.99,,2013-02-21 01:52:00,
2013-02-20 18:00:00,25.0,-99.9,-100.00,ESE,102,0.0,0.0,-999,-99.99,,,-99.99,,2013-02-21 02:00:00,
2013-02-20 19:00:00,25.0,-99.9,-100.00,ESE,104,0.0,1.0,-999,-99.99,,,0.00,,2013-02-21 03:00:00,
2013-02-20 19:52:00,25.0,-99.9,-100.00,ESE,104,0.0,1.0,-999,-99.99,,,0.00,,2013-02-21 03:52:00,
2013-02-20 20:00:00,25.0,-99.9,-100.00,SE,126,0.0,0.0,-999,-99.99,,,0.00,,2013-02-21 04:00:00,
2013-02-20 20:52:00,25.0,-99.9,-100.00,SE,126,0.0,0.0,-999,-99.99,,,0.00,,2013-02-21 04:52:00,
2013-02-20 21:00:00,25.0,-99.9,-100.00,SE,127,0.0,0.0,-999,-99.99,,,0.00,,2013-02-21 05:00:00,
2013-02-20 22:00:00,24.0,-99.9,-100.00,ENE,78,0.0,0.0,-999,-99.99,,,-99.99,,2013-02-21 06:00:00,
2013-02-20 22:52:00,24.0,-99.9,-100.00,ENE,78,0.0,0.0,-999,-99.99,,,-99.99,,2013-02-21 06:52:00,
2013-02-20 23:00:00,25.0,-99.9,-100.00,East,92,1.0,2.0,-999,-99.99,,,0.00,,2013-02-21 07:00:00,
2013-02-20 23:52:00,25.0,-99.9,-100.00,East,92,1.0,2.0,-999,-99.99,,,0.00,,2013-02-21 07:52:00,